METAR AND TAF INFORMATION
METAR FOR CYHK
ADDS - METARS form results

(1147 UTC 22 October 2020)
Data provider http://aviationweather.gov/metar/data/
 
METAR text: CYHK 221103Z AUTO 36021KT 1 1/4SM -SN BKN006 BKN010 OVC024 M04/M04 A2985 RMK ICG SLP115
Conditions at: CYHK (GJOA HAVEN AIRPO, NU, CA) observed 1103 UTC 22 October 2020
Temperature: -4.0°C (25°F)
Dewpoint: -4.0°C (25°F) [RH = 100%]
Pressure (altimeter): 29.85 inches Hg (1010.9 mb)
[Sea-level pressure: 1011.5 mb]
Winds: from the N (360 degrees) at 24 MPH (21 knots; 10.8 m/s)
Visibility: 1.25 miles (2.01 km)
Ceiling: 600 feet AGL
Clouds: broken clouds at 600 feet AGL
broken clouds at 1000 feet AGL
overcast cloud deck at 2400 feet AGL
Weather: -SN  (light snow)

METAR text: CYHK 221100Z AUTO 36021KT 1 3/4SM -SN BKN006 BKN010 OVC022 M03/M03 A2985 RMK ICG SLP115
Conditions at: CYHK (GJOA HAVEN AIRPO, NU, CA) observed 1100 UTC 22 October 2020
Temperature: -3.0°C (27°F)
Dewpoint: -3.0°C (27°F) [RH = 100%]
Pressure (altimeter): 29.85 inches Hg (1010.9 mb)
[Sea-level pressure: 1011.5 mb]
Winds: from the N (360 degrees) at 24 MPH (21 knots; 10.8 m/s)
Visibility: 1.75 miles (2.82 km)
Ceiling: 600 feet AGL
Clouds: broken clouds at 600 feet AGL
broken clouds at 1000 feet AGL
overcast cloud deck at 2200 feet AGL
Weather: -SN  (light snow)

METAR text: CYHK 221059Z AUTO 36021KT 2SM -SN BKN006 BKN010 OVC022 M03/M03 A2985 RMK ICG SLP114
Conditions at: CYHK (GJOA HAVEN AIRPO, NU, CA) observed 1059 UTC 22 October 2020
Temperature: -3.0°C (27°F)
Dewpoint: -3.0°C (27°F) [RH = 100%]
Pressure (altimeter): 29.85 inches Hg (1010.9 mb)
[Sea-level pressure: 1011.4 mb]
Winds: from the N (360 degrees) at 24 MPH (21 knots; 10.8 m/s)
Visibility: 2.00 miles (3.22 km)
Ceiling: 600 feet AGL
Clouds: broken clouds at 600 feet AGL
broken clouds at 1000 feet AGL
overcast cloud deck at 2200 feet AGL
Weather: -SN  (light snow)

METAR text: CYHK 221055Z AUTO 36020KT 5SM -SN BKN006 BKN010 OVC022 M03/M03 A2985 RMK SLP114
Conditions at: CYHK (GJOA HAVEN AIRPO, NU, CA) observed 1055 UTC 22 October 2020
Temperature: -3.0°C (27°F)
Dewpoint: -3.0°C (27°F) [RH = 100%]
Pressure (altimeter): 29.85 inches Hg (1010.9 mb)
[Sea-level pressure: 1011.4 mb]
Winds: from the N (360 degrees) at 23 MPH (20 knots; 10.3 m/s)
Visibility: 5 miles ( 8 km)
Ceiling: 600 feet AGL
Clouds: broken clouds at 600 feet AGL
broken clouds at 1000 feet AGL
overcast cloud deck at 2200 feet AGL
Weather: -SN  (light snow)

METAR text: CYHK 221052Z AUTO 36019KT 9SM -SN SCT006 BKN010 OVC022 M03/M03 A2985 RMK SLP115
Conditions at: CYHK (GJOA HAVEN AIRPO, NU, CA) observed 1052 UTC 22 October 2020
Temperature: -3.0°C (27°F)
Dewpoint: -3.0°C (27°F) [RH = 100%]
Pressure (altimeter): 29.85 inches Hg (1010.9 mb)
[Sea-level pressure: 1011.5 mb]
Winds: from the N (360 degrees) at 22 MPH (19 knots; 9.8 m/s)
Visibility: 9 miles (14 km)
Ceiling: 1000 feet AGL
Clouds: scattered clouds at 600 feet AGL
broken clouds at 1000 feet AGL
overcast cloud deck at 2200 feet AGL
Weather: -SN  (light snow)

Forecast for: CYHK (GJOA HAVEN AIRPO, NU, CA)
Text: TAF CYHK 221138Z 2212/2224 35020KT P6SM FEW006 BKN012 OVC025
Forecast period: 1200 to 1500 UTC 22 October 2020
Forecast type: FROM: standard forecast or significant change
Winds: from the N (350 degrees) at 23 MPH (20 knots; 10.3 m/s)
Visibility: 6 or more miles (10+ km)
Ceiling: 1200 feet AGL
Clouds: few clouds at 600 feet AGL
broken clouds at 1200 feet AGL
overcast cloud deck at 2500 feet AGL
Weather: no significant weather forecast for this period
Text: TEMPO 2212/2215 1SM -SN BLSN BKN006 OVC012
Forecast period: 1200 to 1500 UTC 22 October 2020
Forecast type: TEMPORARY: The following changes expected for less than half the time period
Visibility: 1.00 miles (1.61 km)
Ceiling: 600 feet AGL
Clouds: broken clouds at 600 feet AGL
overcast cloud deck at 1200 feet AGL
Weather: -SN BLSN  (light snow, blowing snow)
Text: FM221500 33020KT P6SM FEW006 BKN012 OVC025
Forecast period: 1500 UTC 22 October 2020 to 0000 UTC 23 October 2020
Forecast type: FROM: standard forecast or significant change
Winds: from the NNW (330 degrees) at 23 MPH (20 knots; 10.3 m/s)
Visibility: 6 or more miles (10+ km)
Ceiling: 1200 feet AGL
Clouds: few clouds at 600 feet AGL
broken clouds at 1200 feet AGL
overcast cloud deck at 2500 feet AGL
Weather: no significant weather forecast for this period
Text: TEMPO 2215/2224 11/2SM -SN BLSN BKN006 OVC012 RMK FCST BASED ON AUTO OBS. NXT FCST BY 221800Z
Forecast period: 1500 UTC 22 October 2020 to 0000 UTC 23 October 2020
Forecast type: TEMPORARY: The following changes expected for less than half the time period
Visibility: 1.50 miles (2.41 km)
Ceiling: 600 feet AGL
Clouds: broken clouds at 600 feet AGL
overcast cloud deck at 1200 feet AGL
Weather: -SN BLSN  (light snow, blowing snow)

 AIRPORT MAP

 RUNWAY INFORMATION
Runway 13T Runway length 4400 ft Runway width 100 ft
Runway elevation 154 ft Runway displaced threshold 0 ft Runway heading 127
Runway 31T Runway length 4400 ft Runway width 100 ft
Runway elevation 128 ft Runway displaced threshold 0 ft Runway heading 307

 AIRPORT FREQUENCIES
Type ATF Name MANDATORY Frequency 122.1 MHZ
Type RDO Name ARPT RDO Frequency 122.1 MHZ

 AIRPORT NEAR NAVIGATION AIDS
Type NDB Name Gjoa Haven Frequency 236 KHZ



Powered by Virtual Airlines Manager [v2.6.2]

Hosted by Utixo.it